Thedford, NE

8:23 AM CST on February 23, 2017 (GMT -0600)
Thedford

Weather History for KTIF - November, 2011

Change the Weather History Date:

Wednesday, November 16, 2011

  Actual Average (KANW) Record (KANW)
Temperature  
Mean Temperature 27 °F -  
Max Temperature 35 °F 45 °F 71 °F (2016)
Min Temperature 19 °F 24 °F -6 °F (2014)
Degree Days  
Heating Degree Days 38    
Moisture  
Dew Point 16 °F    
Average Humidity 56    
Maximum Humidity 69    
Minimum Humidity 35    
Precipitation  
Precipitation 0.00 in - - ()
Sea Level Pressure  
Sea Level Pressure 30.19 in    
Wind  
Wind Speed 8 mph (WNW)    
Max Wind Speed 22 mph    
Max Gust Speed 29 mph    
Visibility 10 miles    
Events Snow    
Averages and records for this station are not official NWS values.
T = Trace of Precipitation, MM = Missing Value Source: NWS Daily Summary

Daily Weather History Graph

Daily Weather History Graph

Search for Another Location

Airport or City:

Trip Planner

Search our weather history database for the weather conditions in past years. The results will help you decide how hot, cold, wet, or windy it might be!

Date:

Astronomy

Nov. 16, 2011 Rise Set
Actual Time 7:33 AM CST 5:20 PM CST
Civil Twilight 7:02 AM CST 5:50 PM CST
Nautical Twilight 6:29 AM CST 6:24 PM CST
Astronomical Twilight 5:56 AM CST 6:57 PM CST
Moon 10:37 PM CST (11/16) 12:09 PM CST (11/16)
Length of Visible Light 10h 47m
Length of Day
9h 47m
Waning Gibbous, 70% of the Moon is Illuminated
Nov 16
Waning Gibbous
Nov 18
Last Quarter
Nov 25
New
Dec 2
First Quarter
Dec 10
Full

Hourly Weather History & Observations

Time (CST) Temp. Windchill Dew Point Humidity Pressure Visibility Wind Dir Wind Speed Gust Speed Precip Events Conditions
12:15 AM 32.0 °F 25.6 °F 14.0 °F 48% 30.08 in 10.0 mi NNW 6.9 mph - N/A   Overcast
12:35 AM 32.0 °F 23.6 °F 15.8 °F 51% 30.09 in 10.0 mi NW 10.4 mph - N/A   Overcast
12:55 AM 32.0 °F 26.4 °F 15.8 °F 51% 30.09 in 10.0 mi NW 5.8 mph - N/A   Overcast
1:15 AM 32.0 °F 26.4 °F 15.8 °F 51% 30.09 in 10.0 mi WNW 5.8 mph - N/A   Overcast
1:35 AM 30.2 °F 25.4 °F 17.6 °F 60% 30.10 in 10.0 mi West 4.6 mph - N/A   Overcast
1:55 AM 30.2 °F 26.7 °F 17.6 °F 60% 30.10 in 10.0 mi WNW 3.5 mph - N/A   Overcast
2:15 AM 30.2 °F - 17.6 °F 60% 30.09 in 10.0 mi Calm Calm - N/A   Overcast
2:35 AM 30.2 °F 25.4 °F 17.6 °F 60% 30.10 in 10.0 mi WNW 4.6 mph - N/A   Overcast
2:55 AM 30.2 °F 26.7 °F 17.6 °F 60% 30.10 in 10.0 mi WNW 3.5 mph - N/A   Overcast
3:15 AM 30.2 °F 25.4 °F 19.4 °F 64% 30.10 in 10.0 mi NW 4.6 mph - N/A   Overcast
3:35 AM 30.2 °F - 19.4 °F 64% 30.10 in 10.0 mi Calm Calm - N/A   Overcast
3:55 AM 28.4 °F - 19.4 °F 69% 30.10 in 10.0 mi Calm Calm - N/A   Overcast
4:15 AM 28.4 °F 24.6 °F 19.4 °F 69% 30.10 in 10.0 mi WSW 3.5 mph - N/A   Overcast
4:35 AM 28.4 °F 23.3 °F 19.4 °F 69% 30.10 in 10.0 mi West 4.6 mph - N/A   Overcast
4:55 AM 30.2 °F - 19.4 °F 64% 30.11 in 10.0 mi Calm Calm - N/A   Overcast
5:15 AM 30.2 °F 24.3 °F 17.6 °F 60% 30.11 in 10.0 mi WSW 5.8 mph - N/A   Overcast
5:35 AM 30.2 °F 24.3 °F 19.4 °F 64% 30.13 in 10.0 mi WNW 5.8 mph - N/A   Overcast
5:55 AM 28.4 °F 24.6 °F 19.4 °F 69% 30.14 in 10.0 mi NNW 3.5 mph - N/A   Overcast
6:15 AM 28.4 °F 23.3 °F 19.4 °F 69% 30.14 in 10.0 mi NW 4.6 mph - N/A   Overcast
6:35 AM 28.4 °F 23.3 °F 19.4 °F 69% 30.15 in 10.0 mi NW 4.6 mph - N/A   Overcast
6:55 AM 28.4 °F 22.2 °F 17.6 °F 64% 30.15 in 10.0 mi WNW 5.8 mph - N/A   Overcast
7:15 AM 30.2 °F 26.7 °F 17.6 °F 60% 30.17 in 10.0 mi WNW 3.5 mph - N/A   Overcast
7:35 AM 30.2 °F 24.3 °F 15.8 °F 55% 30.17 in 10.0 mi West 5.8 mph - N/A   Overcast
7:55 AM 32.0 °F 28.7 °F 15.8 °F 51% 30.19 in 10.0 mi West 3.5 mph - N/A   Overcast
8:15 AM 32.0 °F - 17.6 °F 55% 30.20 in 10.0 mi Calm Calm - N/A   Overcast
8:35 AM 32.0 °F 24.8 °F 19.4 °F 60% 30.21 in 10.0 mi West 8.1 mph - N/A   Overcast
8:55 AM 32.0 °F 22.5 °F 21.2 °F 64% 30.22 in 10.0 mi West 12.7 mph - N/A   Overcast
9:15 AM 32.0 °F 21.6 °F 21.2 °F 64% 30.23 in 10.0 mi West 15.0 mph - N/A   Overcast
9:35 AM 32.0 °F 22.1 °F 23.0 °F 69% 30.23 in 10.0 mi West 13.8 mph - N/A   Overcast
10:15 AM 32.0 °F 22.1 °F 21.2 °F 64% 30.25 in 10.0 mi West 13.8 mph - N/A   Overcast
10:35 AM 32.0 °F 21.6 °F 19.4 °F 60% 30.25 in 10.0 mi WNW 15.0 mph 21.9 mph N/A   Overcast
10:55 AM 33.8 °F 23.9 °F 19.4 °F 56% 30.25 in 10.0 mi West 15.0 mph 20.7 mph N/A   Mostly Cloudy
11:15 AM 35.6 °F 25.5 °F 17.6 °F 48% 30.25 in 10.0 mi WNW 17.3 mph 23.0 mph N/A   Overcast
11:35 AM 35.6 °F 25.5 °F 17.6 °F 48% 30.25 in 10.0 mi WNW 17.3 mph 24.2 mph N/A   Overcast
11:55 AM 33.8 °F 23.5 °F 14.0 °F 44% 30.25 in 10.0 mi WNW 16.1 mph 25.3 mph N/A   Mostly Cloudy
12:15 PM 35.6 °F 25.2 °F 10.4 °F 35% 30.24 in 10.0 mi WNW 18.4 mph 23.0 mph N/A   Scattered Clouds
12:35 PM 35.6 °F 25.9 °F 10.4 °F 35% 30.23 in 10.0 mi NW 16.1 mph 19.6 mph N/A   Scattered Clouds
12:55 PM 35.6 °F 25.2 °F 10.4 °F 35% 30.23 in 10.0 mi WNW 18.4 mph 23.0 mph N/A   Mostly Cloudy
1:15 PM 33.8 °F 22.2 °F 15.8 °F 48% 30.24 in 7.0 mi WNW 20.7 mph 25.3 mph N/A   Overcast
1:35 PM 35.6 °F 27.1 °F 15.8 °F 44% 30.23 in 10.0 mi NW 12.7 mph - N/A   Overcast
1:55 PM 35.6 °F 26.6 °F 17.6 °F 48% 30.23 in 7.0 mi NNW 13.8 mph - N/A Snow Light Snow
2:15 PM 33.8 °F 23.9 °F 15.8 °F 48% 30.23 in 10.0 mi NW 15.0 mph 18.4 mph N/A   Overcast
2:35 PM 35.6 °F 26.6 °F 14.0 °F 41% 30.23 in 10.0 mi North 13.8 mph 23.0 mph N/A   Mostly Cloudy
2:55 PM 33.8 °F 24.8 °F 14.0 °F 44% 30.23 in 10.0 mi NNW 12.7 mph 17.3 mph N/A   Mostly Cloudy
3:15 PM 35.6 °F 25.2 °F 15.8 °F 44% 30.23 in 10.0 mi WNW 18.4 mph - N/A   Mostly Cloudy
3:35 PM 35.6 °F 24.2 °F 15.8 °F 44% 30.24 in 10.0 mi NW 21.9 mph 28.8 mph N/A   Overcast
3:55 PM 32.0 °F 23.6 °F 17.6 °F 55% 30.24 in 10.0 mi NW 10.4 mph - N/A   Scattered Clouds
4:15 PM 33.8 °F 24.8 °F 14.0 °F 44% 30.25 in 10.0 mi WNW 12.7 mph 18.4 mph N/A   Clear
4:35 PM 32.0 °F 23.6 °F 14.0 °F 48% 30.25 in 10.0 mi WNW 10.4 mph - N/A   Clear
4:55 PM 32.0 °F 24.8 °F 14.0 °F 48% 30.25 in 10.0 mi WNW 8.1 mph 16.1 mph N/A   Clear
5:15 PM 30.2 °F 24.3 °F 14.0 °F 51% 30.25 in 10.0 mi West 5.8 mph - N/A   Clear
5:35 PM 28.4 °F 23.3 °F 14.0 °F 55% 30.26 in 10.0 mi West 4.6 mph - N/A   Clear
5:55 PM 26.6 °F 21.2 °F 14.0 °F 59% 30.26 in 10.0 mi WSW 4.6 mph - N/A   Clear
6:35 PM 24.8 °F 16.9 °F 14.0 °F 64% 30.26 in 10.0 mi West 6.9 mph - N/A   Clear
6:55 PM 23.0 °F 15.8 °F 14.0 °F 68% 30.26 in 10.0 mi West 5.8 mph - N/A   Clear
7:15 PM 23.0 °F 15.8 °F 12.2 °F 63% 30.26 in 10.0 mi West 5.8 mph - N/A   Clear
7:35 PM 23.0 °F 17.0 °F 12.2 °F 63% 30.26 in 10.0 mi West 4.6 mph - N/A   Clear
7:55 PM 19.4 °F 12.8 °F 10.4 °F 68% 30.26 in 10.0 mi SW 4.6 mph - N/A   Clear
8:15 PM 19.4 °F 14.3 °F 10.4 °F 68% 30.25 in 10.0 mi SW 3.5 mph - N/A   Clear
8:55 PM 19.4 °F 14.3 °F 10.4 °F 68% 30.25 in 10.0 mi WSW 3.5 mph - N/A   Clear
9:15 PM 19.4 °F 14.3 °F 10.4 °F 68% 30.26 in 10.0 mi WSW 3.5 mph - N/A   Clear
9:35 PM 19.4 °F 12.8 °F 10.4 °F 68% 30.26 in 10.0 mi WSW 4.6 mph - N/A   Clear
9:55 PM 17.6 °F - 8.6 °F 68% 30.25 in 10.0 mi Calm Calm - N/A   Clear
10:15 PM 17.6 °F 9.3 °F 8.6 °F 68% 30.25 in 10.0 mi WSW 5.8 mph - N/A   Clear
10:35 PM 19.4 °F 12.8 °F 8.6 °F 63% 30.25 in 10.0 mi WSW 4.6 mph - N/A   Clear
10:55 PM 17.6 °F - 8.6 °F 68% 30.25 in 10.0 mi Calm Calm - N/A   Clear
11:15 PM 17.6 °F - 8.6 °F 68% 30.24 in 10.0 mi Calm Calm - N/A   Clear
11:35 PM 17.6 °F - 8.6 °F 68% 30.24 in 10.0 mi Calm Calm - N/A   Clear
11:55 PM 17.6 °F 12.3 °F 8.6 °F 68% 30.24 in 10.0 mi West 3.5 mph - N/A   Clear